sensor_id;sensor_type;location;lat;lon;timestamp;P1;durP1;ratioP1;P2;durP2;ratioP2
75358;SDS011;64046;51.978;5.934;2023-05-07T00:01:50;6.15;;;4.88;;
75358;SDS011;64046;51.978;5.934;2023-05-07T00:04:22;8.85;;;5.20;;
75358;SDS011;64046;51.978;5.934;2023-05-07T00:06:54;8.07;;;5.18;;
75358;SDS011;64046;51.978;5.934;2023-05-07T00:09:30;6.32;;;5.13;;
75358;SDS011;64046;51.978;5.934;2023-05-07T00:12:02;7.15;;;5.95;;
75358;SDS011;64046;51.978;5.934;2023-05-07T00:14:35;7.57;;;5.57;;
75358;SDS011;64046;51.978;5.934;2023-05-07T00:17:04;8.10;;;5.20;;
75358;SDS011;64046;51.978;5.934;2023-05-07T00:19:42;6.72;;;4.40;;
75358;SDS011;64046;51.978;5.934;2023-05-07T00:22:15;7.82;;;5.13;;
75358;SDS011;64046;51.978;5.934;2023-05-07T00:24:49;8.90;;;5.50;;
75358;SDS011;64046;51.978;5.934;2023-05-07T00:27:19;8.52;;;5.60;;
75358;SDS011;64046;51.978;5.934;2023-05-07T00:29:58;5.93;;;4.78;;
75358;SDS011;64046;51.978;5.934;2023-05-07T00:32:37;7.95;;;5.35;;
75358;SDS011;64046;51.978;5.934;2023-05-07T00:35:14;6.28;;;5.32;;
75358;SDS011;64046;51.978;5.934;2023-05-07T00:37:44;5.95;;;4.80;;
75358;SDS011;64046;51.978;5.934;2023-05-07T00:40:16;10.85;;;5.18;;
75358;SDS011;64046;51.978;5.934;2023-05-07T00:42:52;5.85;;;4.45;;
75358;SDS011;64046;51.978;5.934;2023-05-07T00:45:25;7.10;;;5.00;;
75358;SDS011;64046;51.978;5.934;2023-05-07T00:48:04;7.78;;;5.18;;
75358;SDS011;64046;51.978;5.934;2023-05-07T00:50:43;7.60;;;4.82;;
75358;SDS011;64046;51.978;5.934;2023-05-07T00:53:14;7.05;;;5.47;;
75358;SDS011;64046;51.978;5.934;2023-05-07T00:55:49;11.25;;;4.82;;
75358;SDS011;64046;51.978;5.934;2023-05-07T00:58:24;8.13;;;5.45;;
75358;SDS011;64046;51.978;5.934;2023-05-07T01:00:56;8.68;;;5.03;;
75358;SDS011;64046;51.978;5.934;2023-05-07T01:03:27;5.97;;;4.85;;
75358;SDS011;64046;51.978;5.934;2023-05-07T01:06:03;7.32;;;4.93;;
75358;SDS011;64046;51.978;5.934;2023-05-07T01:08:36;8.25;;;5.25;;
75358;SDS011;64046;51.978;5.934;2023-05-07T01:11:09;7.05;;;4.82;;
75358;SDS011;64046;51.978;5.934;2023-05-07T01:13:40;5.95;;;5.30;;
75358;SDS011;64046;51.978;5.934;2023-05-07T01:16:20;6.50;;;5.20;;
75358;SDS011;64046;51.978;5.934;2023-05-07T01:21:33;8.20;;;5.75;;
75358;SDS011;64046;51.978;5.934;2023-05-07T01:24:20;7.95;;;5.88;;
75358;SDS011;64046;51.978;5.934;2023-05-07T01:27:04;6.57;;;5.13;;
75358;SDS011;64046;51.978;5.934;2023-05-07T01:29:39;9.85;;;5.97;;
75358;SDS011;64046;51.978;5.934;2023-05-07T01:32:14;9.45;;;6.63;;
75358;SDS011;64046;51.978;5.934;2023-05-07T01:34:56;7.20;;;5.65;;
75358;SDS011;64046;51.978;5.934;2023-05-07T01:37:31;11.60;;;6.05;;
75358;SDS011;64046;51.978;5.934;2023-05-07T01:40:06;8.35;;;6.43;;
75358;SDS011;64046;51.978;5.934;2023-05-07T01:42:45;9.07;;;6.75;;
75358;SDS011;64046;51.978;5.934;2023-05-07T01:45:15;8.85;;;6.78;;
75358;SDS011;64046;51.978;5.934;2023-05-07T01:47:59;8.10;;;6.43;;
75358;SDS011;64046;51.978;5.934;2023-05-07T01:50:32;8.73;;;6.95;;
75358;SDS011;64046;51.978;5.934;2023-05-07T01:53:06;6.43;;;5.50;;
75358;SDS011;64046;51.978;5.934;2023-05-07T01:55:39;8.88;;;5.45;;
75358;SDS011;64046;51.978;5.934;2023-05-07T01:58:12;7.32;;;5.72;;
75358;SDS011;64046;51.978;5.934;2023-05-07T02:00:44;8.02;;;5.80;;
75358;SDS011;64046;51.978;5.934;2023-05-07T02:03:21;10.27;;;6.85;;
75358;SDS011;64046;51.978;5.934;2023-05-07T02:06:01;7.97;;;6.40;;
75358;SDS011;64046;51.978;5.934;2023-05-07T02:08:34;8.73;;;6.32;;
75358;SDS011;64046;51.978;5.934;2023-05-07T02:11:16;8.75;;;5.88;;
75358;SDS011;64046;51.978;5.934;2023-05-07T02:13:47;11.35;;;6.90;;
75358;SDS011;64046;51.978;5.934;2023-05-07T02:16:16;8.10;;;6.30;;
75358;SDS011;64046;51.978;5.934;2023-05-07T02:18:52;9.73;;;6.32;;
75358;SDS011;64046;51.978;5.934;2023-05-07T02:21:24;9.10;;;6.45;;
75358;SDS011;64046;51.978;5.934;2023-05-07T02:23:59;7.57;;;6.22;;
75358;SDS011;64046;51.978;5.934;2023-05-07T02:26:42;9.30;;;6.25;;
75358;SDS011;64046;51.978;5.934;2023-05-07T02:29:14;7.35;;;6.25;;
75358;SDS011;64046;51.978;5.934;2023-05-07T02:31:50;8.57;;;5.88;;
75358;SDS011;64046;51.978;5.934;2023-05-07T02:34:27;10.68;;;7.07;;
75358;SDS011;64046;51.978;5.934;2023-05-07T02:37:04;9.02;;;6.18;;
75358;SDS011;64046;51.978;5.934;2023-05-07T02:39:34;11.50;;;6.80;;
75358;SDS011;64046;51.978;5.934;2023-05-07T02:42:11;9.43;;;6.53;;
75358;SDS011;64046;51.978;5.934;2023-05-07T02:44:41;7.97;;;6.68;;
75358;SDS011;64046;51.978;5.934;2023-05-07T02:47:30;8.23;;;6.50;;
75358;SDS011;64046;51.978;5.934;2023-05-07T02:50:06;9.43;;;5.95;;
75358;SDS011;64046;51.978;5.934;2023-05-07T02:52:48;8.73;;;6.80;;
75358;SDS011;64046;51.978;5.934;2023-05-07T02:55:19;9.68;;;6.95;;
75358;SDS011;64046;51.978;5.934;2023-05-07T02:57:52;9.15;;;6.75;;
75358;SDS011;64046;51.978;5.934;2023-05-07T03:00:25;10.48;;;6.85;;
75358;SDS011;64046;51.978;5.934;2023-05-07T03:03:22;9.32;;;6.65;;
75358;SDS011;64046;51.978;5.934;2023-05-07T03:05:51;8.40;;;6.90;;
75358;SDS011;64046;51.978;5.934;2023-05-07T03:08:27;8.60;;;6.82;;
75358;SDS011;64046;51.978;5.934;2023-05-07T03:10:57;9.48;;;6.35;;
75358;SDS011;64046;51.978;5.934;2023-05-07T03:13:35;10.05;;;6.55;;
75358;SDS011;64046;51.978;5.934;2023-05-07T03:16:08;8.60;;;7.05;;
75358;SDS011;64046;51.978;5.934;2023-05-07T03:18:39;9.13;;;6.07;;
75358;SDS011;64046;51.978;5.934;2023-05-07T03:21:09;10.25;;;7.53;;
75358;SDS011;64046;51.978;5.934;2023-05-07T03:23:44;11.20;;;7.88;;
75358;SDS011;64046;51.978;5.934;2023-05-07T03:26:14;10.82;;;7.80;;
75358;SDS011;64046;51.978;5.934;2023-05-07T03:28:47;9.90;;;6.82;;
75358;SDS011;64046;51.978;5.934;2023-05-07T03:31:20;9.82;;;7.32;;
75358;SDS011;64046;51.978;5.934;2023-05-07T03:33:51;10.75;;;6.95;;
75358;SDS011;64046;51.978;5.934;2023-05-07T03:36:33;11.65;;;6.97;;
75358;SDS011;64046;51.978;5.934;2023-05-07T03:39:11;10.13;;;7.15;;
75358;SDS011;64046;51.978;5.934;2023-05-07T03:41:48;11.95;;;8.57;;
75358;SDS011;64046;51.978;5.934;2023-05-07T03:44:32;13.23;;;8.00;;
75358;SDS011;64046;51.978;5.934;2023-05-07T03:47:05;8.35;;;6.35;;
75358;SDS011;64046;51.978;5.934;2023-05-07T03:49:43;9.40;;;6.82;;
75358;SDS011;64046;51.978;5.934;2023-05-07T03:52:14;8.77;;;7.22;;
75358;SDS011;64046;51.978;5.934;2023-05-07T03:54:55;13.55;;;8.13;;
75358;SDS011;64046;51.978;5.934;2023-05-07T03:57:27;9.25;;;7.05;;
75358;SDS011;64046;51.978;5.934;2023-05-07T04:00:04;10.63;;;7.32;;
75358;SDS011;64046;51.978;5.934;2023-05-07T04:02:53;10.10;;;7.20;;
75358;SDS011;64046;51.978;5.934;2023-05-07T04:05:28;11.10;;;8.57;;
75358;SDS011;64046;51.978;5.934;2023-05-07T04:08:02;10.38;;;8.38;;
75358;SDS011;64046;51.978;5.934;2023-05-07T04:10:39;14.15;;;9.55;;
75358;SDS011;64046;51.978;5.934;2023-05-07T04:13:14;12.82;;;9.40;;
75358;SDS011;64046;51.978;5.934;2023-05-07T04:15:47;12.13;;;9.40;;
75358;SDS011;64046;51.978;5.934;2023-05-07T04:18:20;12.13;;;9.45;;
75358;SDS011;64046;51.978;5.934;2023-05-07T04:20:54;11.55;;;8.95;;
75358;SDS011;64046;51.978;5.934;2023-05-07T04:23:27;14.65;;;10.52;;
75358;SDS011;64046;51.978;5.934;2023-05-07T04:26:11;11.05;;;8.93;;
75358;SDS011;64046;51.978;5.934;2023-05-07T04:28:51;12.25;;;8.73;;
75358;SDS011;64046;51.978;5.934;2023-05-07T04:31:26;11.63;;;9.30;;
75358;SDS011;64046;51.978;5.934;2023-05-07T04:34:01;9.80;;;8.75;;
75358;SDS011;64046;51.978;5.934;2023-05-07T04:36:35;10.93;;;8.93;;
75358;SDS011;64046;51.978;5.934;2023-05-07T04:39:13;14.30;;;10.63;;
75358;SDS011;64046;51.978;5.934;2023-05-07T04:41:52;15.13;;;11.02;;
75358;SDS011;64046;51.978;5.934;2023-05-07T04:44:24;17.25;;;9.63;;
75358;SDS011;64046;51.978;5.934;2023-05-07T04:47:01;14.95;;;10.25;;
75358;SDS011;64046;51.978;5.934;2023-05-07T04:49:38;13.10;;;9.02;;
75358;SDS011;64046;51.978;5.934;2023-05-07T04:52:13;11.75;;;9.60;;
75358;SDS011;64046;51.978;5.934;2023-05-07T04:54:50;13.40;;;11.27;;
75358;SDS011;64046;51.978;5.934;2023-05-07T04:57:20;11.38;;;9.70;;
75358;SDS011;64046;51.978;5.934;2023-05-07T05:00:02;12.60;;;8.93;;
75358;SDS011;64046;51.978;5.934;2023-05-07T05:02:38;15.43;;;12.23;;
75358;SDS011;64046;51.978;5.934;2023-05-07T05:05:29;12.27;;;10.75;;
75358;SDS011;64046;51.978;5.934;2023-05-07T05:07:59;14.65;;;11.05;;
75358;SDS011;64046;51.978;5.934;2023-05-07T05:10:33;14.05;;;10.93;;
75358;SDS011;64046;51.978;5.934;2023-05-07T05:15:42;11.38;;;10.18;;
75358;SDS011;64046;51.978;5.934;2023-05-07T05:18:16;13.55;;;10.35;;
75358;SDS011;64046;51.978;5.934;2023-05-07T05:20:47;13.15;;;10.23;;
75358;SDS011;64046;51.978;5.934;2023-05-07T05:23:17;11.90;;;9.95;;
75358;SDS011;64046;51.978;5.934;2023-05-07T05:25:51;12.63;;;11.07;;
75358;SDS011;64046;51.978;5.934;2023-05-07T05:28:29;10.45;;;9.35;;
75358;SDS011;64046;51.978;5.934;2023-05-07T05:31:00;14.45;;;11.25;;
75358;SDS011;64046;51.978;5.934;2023-05-07T05:33:36;14.18;;;11.35;;
75358;SDS011;64046;51.978;5.934;2023-05-07T05:36:08;13.88;;;11.50;;
75358;SDS011;64046;51.978;5.934;2023-05-07T05:38:39;11.52;;;9.75;;
75358;SDS011;64046;51.978;5.934;2023-05-07T05:41:14;14.73;;;9.65;;
75358;SDS011;64046;51.978;5.934;2023-05-07T05:43:48;17.83;;;11.20;;
75358;SDS011;64046;51.978;5.934;2023-05-07T05:46:18;13.73;;;10.65;;
75358;SDS011;64046;51.978;5.934;2023-05-07T05:48:53;12.63;;;9.80;;
75358;SDS011;64046;51.978;5.934;2023-05-07T05:51:25;11.82;;;9.65;;
75358;SDS011;64046;51.978;5.934;2023-05-07T05:54:08;13.38;;;10.82;;
75358;SDS011;64046;51.978;5.934;2023-05-07T05:56:38;10.63;;;9.43;;
75358;SDS011;64046;51.978;5.934;2023-05-07T05:59:09;12.30;;;10.57;;
75358;SDS011;64046;51.978;5.934;2023-05-07T06:01:40;12.30;;;10.25;;
75358;SDS011;64046;51.978;5.934;2023-05-07T06:04:14;11.20;;;9.75;;
75358;SDS011;64046;51.978;5.934;2023-05-07T06:06:43;11.45;;;9.45;;
75358;SDS011;64046;51.978;5.934;2023-05-07T06:09:19;14.65;;;11.55;;
75358;SDS011;64046;51.978;5.934;2023-05-07T06:11:55;11.70;;;9.15;;
75358;SDS011;64046;51.978;5.934;2023-05-07T06:14:33;10.57;;;9.10;;
75358;SDS011;64046;51.978;5.934;2023-05-07T06:17:06;14.05;;;10.25;;
75358;SDS011;64046;51.978;5.934;2023-05-07T06:19:41;9.88;;;8.75;;
75358;SDS011;64046;51.978;5.934;2023-05-07T06:22:13;11.80;;;9.65;;
75358;SDS011;64046;51.978;5.934;2023-05-07T06:24:55;10.70;;;9.25;;
75358;SDS011;64046;51.978;5.934;2023-05-07T06:27:29;10.77;;;9.05;;
75358;SDS011;64046;51.978;5.934;2023-05-07T06:30:03;13.38;;;11.38;;
75358;SDS011;64046;51.978;5.934;2023-05-07T06:32:34;12.07;;;10.00;;
75358;SDS011;64046;51.978;5.934;2023-05-07T06:35:12;13.02;;;9.80;;
75358;SDS011;64046;51.978;5.934;2023-05-07T06:37:42;12.90;;;10.43;;
75358;SDS011;64046;51.978;5.934;2023-05-07T06:40:20;12.13;;;9.63;;
75358;SDS011;64046;51.978;5.934;2023-05-07T06:42:52;14.75;;;13.07;;
75358;SDS011;64046;51.978;5.934;2023-05-07T06:45:29;15.43;;;12.57;;
75358;SDS011;64046;51.978;5.934;2023-05-07T06:48:10;15.23;;;11.35;;
75358;SDS011;64046;51.978;5.934;2023-05-07T06:50:54;12.00;;;10.32;;
75358;SDS011;64046;51.978;5.934;2023-05-07T06:53:28;15.45;;;12.48;;
75358;SDS011;64046;51.978;5.934;2023-05-07T06:56:04;21.00;;;15.05;;
75358;SDS011;64046;51.978;5.934;2023-05-07T06:58:42;14.00;;;11.57;;
75358;SDS011;64046;51.978;5.934;2023-05-07T07:01:17;14.93;;;13.10;;
75358;SDS011;64046;51.978;5.934;2023-05-07T07:03:52;16.73;;;12.50;;
75358;SDS011;64046;51.978;5.934;2023-05-07T07:06:25;17.35;;;14.15;;
75358;SDS011;64046;51.978;5.934;2023-05-07T07:09:01;15.73;;;12.90;;
75358;SDS011;64046;51.978;5.934;2023-05-07T07:11:35;14.30;;;12.20;;
75358;SDS011;64046;51.978;5.934;2023-05-07T07:14:06;21.55;;;17.10;;
75358;SDS011;64046;51.978;5.934;2023-05-07T07:16:46;18.02;;;14.73;;
75358;SDS011;64046;51.978;5.934;2023-05-07T07:19:22;20.33;;;16.13;;
75358;SDS011;64046;51.978;5.934;2023-05-07T07:22:00;17.00;;;14.25;;
75358;SDS011;64046;51.978;5.934;2023-05-07T07:24:32;19.30;;;13.65;;
75358;SDS011;64046;51.978;5.934;2023-05-07T07:27:06;15.80;;;13.20;;
75358;SDS011;64046;51.978;5.934;2023-05-07T07:29:37;15.48;;;12.27;;
75358;SDS011;64046;51.978;5.934;2023-05-07T07:32:11;16.95;;;13.10;;
75358;SDS011;64046;51.978;5.934;2023-05-07T07:34:47;13.32;;;11.30;;
75358;SDS011;64046;51.978;5.934;2023-05-07T07:37:25;16.17;;;12.55;;
75358;SDS011;64046;51.978;5.934;2023-05-07T07:39:57;15.65;;;13.25;;
75358;SDS011;64046;51.978;5.934;2023-05-07T07:42:34;21.23;;;13.32;;
75358;SDS011;64046;51.978;5.934;2023-05-07T07:45:07;22.73;;;14.93;;
75358;SDS011;64046;51.978;5.934;2023-05-07T07:47:41;17.10;;;13.60;;
75358;SDS011;64046;51.978;5.934;2023-05-07T07:50:16;18.42;;;13.77;;
75358;SDS011;64046;51.978;5.934;2023-05-07T07:52:53;20.23;;;14.75;;
75358;SDS011;64046;51.978;5.934;2023-05-07T07:55:28;16.25;;;12.07;;
75358;SDS011;64046;51.978;5.934;2023-05-07T07:57:58;15.77;;;11.75;;
75358;SDS011;64046;51.978;5.934;2023-05-07T08:00:35;14.88;;;11.77;;
75358;SDS011;64046;51.978;5.934;2023-05-07T08:03:08;16.52;;;13.57;;
75358;SDS011;64046;51.978;5.934;2023-05-07T08:05:57;18.55;;;15.32;;
75358;SDS011;64046;51.978;5.934;2023-05-07T08:11:44;16.05;;;12.15;;
75358;SDS011;64046;51.978;5.934;2023-05-07T08:14:22;20.52;;;13.65;;
75358;SDS011;64046;51.978;5.934;2023-05-07T08:16:57;16.17;;;12.68;;
75358;SDS011;64046;51.978;5.934;2023-05-07T08:19:32;25.20;;;17.13;;
75358;SDS011;64046;51.978;5.934;2023-05-07T08:22:07;19.25;;;14.90;;
75358;SDS011;64046;51.978;5.934;2023-05-07T08:24:38;15.73;;;12.52;;
75358;SDS011;64046;51.978;5.934;2023-05-07T08:27:12;23.40;;;15.55;;
75358;SDS011;64046;51.978;5.934;2023-05-07T08:29:43;16.65;;;12.52;;
75358;SDS011;64046;51.978;5.934;2023-05-07T08:32:15;18.35;;;12.77;;
75358;SDS011;64046;51.978;5.934;2023-05-07T08:37:35;17.33;;;13.13;;
75358;SDS011;64046;51.978;5.934;2023-05-07T08:40:30;16.65;;;12.57;;
75358;SDS011;64046;51.978;5.934;2023-05-07T08:46:53;15.85;;;12.75;;
75358;SDS011;64046;51.978;5.934;2023-05-07T08:49:34;17.80;;;13.75;;
75358;SDS011;64046;51.978;5.934;2023-05-07T08:52:08;17.98;;;13.30;;
75358;SDS011;64046;51.978;5.934;2023-05-07T08:54:46;18.92;;;13.65;;
75358;SDS011;64046;51.978;5.934;2023-05-07T08:57:16;17.27;;;12.80;;
75358;SDS011;64046;51.978;5.934;2023-05-07T09:00:17;16.00;;;11.70;;
75358;SDS011;64046;51.978;5.934;2023-05-07T09:02:54;16.83;;;13.15;;
75358;SDS011;64046;51.978;5.934;2023-05-07T09:05:27;18.67;;;13.32;;
75358;SDS011;64046;51.978;5.934;2023-05-07T09:08:13;16.38;;;12.05;;
75358;SDS011;64046;51.978;5.934;2023-05-07T09:10:50;19.60;;;14.60;;
75358;SDS011;64046;51.978;5.934;2023-05-07T09:13:24;17.58;;;12.93;;
75358;SDS011;64046;51.978;5.934;2023-05-07T09:16:01;17.40;;;12.10;;
75358;SDS011;64046;51.978;5.934;2023-05-07T09:18:50;14.98;;;12.13;;
75358;SDS011;64046;51.978;5.934;2023-05-07T09:21:33;17.42;;;11.73;;
75358;SDS011;64046;51.978;5.934;2023-05-07T09:24:10;18.92;;;12.10;;
75358;SDS011;64046;51.978;5.934;2023-05-07T09:26:43;14.32;;;11.98;;
75358;SDS011;64046;51.978;5.934;2023-05-07T09:29:26;16.65;;;13.93;;
75358;SDS011;64046;51.978;5.934;2023-05-07T09:32:20;17.67;;;13.45;;
75358;SDS011;64046;51.978;5.934;2023-05-07T09:35:12;15.90;;;11.82;;
75358;SDS011;64046;51.978;5.934;2023-05-07T09:37:55;15.63;;;12.13;;
75358;SDS011;64046;51.978;5.934;2023-05-07T09:41:02;15.55;;;11.88;;
75358;SDS011;64046;51.978;5.934;2023-05-07T09:43:48;14.68;;;11.30;;
75358;SDS011;64046;51.978;5.934;2023-05-07T09:46:38;14.23;;;10.70;;
75358;SDS011;64046;51.978;5.934;2023-05-07T09:49:20;15.85;;;10.48;;
75358;SDS011;64046;51.978;5.934;2023-05-07T09:52:06;14.75;;;10.20;;
75358;SDS011;64046;51.978;5.934;2023-05-07T09:54:42;15.15;;;11.55;;
75358;SDS011;64046;51.978;5.934;2023-05-07T09:57:21;13.88;;;11.20;;
75358;SDS011;64046;51.978;5.934;2023-05-07T10:02:58;16.90;;;12.00;;
75358;SDS011;64046;51.978;5.934;2023-05-07T10:05:42;14.55;;;11.18;;
75358;SDS011;64046;51.978;5.934;2023-05-07T10:08:19;14.70;;;11.07;;
75358;SDS011;64046;51.978;5.934;2023-05-07T10:10:55;17.20;;;12.57;;
75358;SDS011;64046;51.978;5.934;2023-05-07T10:13:31;14.75;;;10.45;;
75358;SDS011;64046;51.978;5.934;2023-05-07T10:16:05;12.65;;;10.13;;
75358;SDS011;64046;51.978;5.934;2023-05-07T10:21:29;13.68;;;10.70;;
75358;SDS011;64046;51.978;5.934;2023-05-07T10:24:12;14.50;;;9.95;;
75358;SDS011;64046;51.978;5.934;2023-05-07T10:26:59;14.10;;;10.07;;
75358;SDS011;64046;51.978;5.934;2023-05-07T10:29:33;17.42;;;12.65;;
75358;SDS011;64046;51.978;5.934;2023-05-07T10:32:17;15.25;;;11.00;;
75358;SDS011;64046;51.978;5.934;2023-05-07T10:35:09;12.32;;;10.55;;
75358;SDS011;64046;51.978;5.934;2023-05-07T10:37:47;14.00;;;10.95;;
75358;SDS011;64046;51.978;5.934;2023-05-07T10:40:31;10.80;;;9.10;;
75358;SDS011;64046;51.978;5.934;2023-05-07T10:43:06;15.48;;;10.98;;
75358;SDS011;64046;51.978;5.934;2023-05-07T10:55:24;16.42;;;12.30;;
75358;SDS011;64046;51.978;5.934;2023-05-07T10:58:28;12.40;;;9.90;;
75358;SDS011;64046;51.978;5.934;2023-05-07T11:01:13;15.05;;;11.85;;
75358;SDS011;64046;51.978;5.934;2023-05-07T11:04:13;12.35;;;9.73;;
75358;SDS011;64046;51.978;5.934;2023-05-07T11:10:08;10.48;;;9.32;;
75358;SDS011;64046;51.978;5.934;2023-05-07T11:12:59;10.75;;;9.07;;
75358;SDS011;64046;51.978;5.934;2023-05-07T11:15:45;13.23;;;10.25;;
75358;SDS011;64046;51.978;5.934;2023-05-07T11:18:24;12.13;;;9.55;;
75358;SDS011;64046;51.978;5.934;2023-05-07T11:21:01;11.05;;;8.88;;
75358;SDS011;64046;51.978;5.934;2023-05-07T11:23:56;17.10;;;11.52;;
75358;SDS011;64046;51.978;5.934;2023-05-07T11:26:47;12.57;;;10.25;;
75358;SDS011;64046;51.978;5.934;2023-05-07T11:29:21;13.82;;;11.10;;
75358;SDS011;64046;51.978;5.934;2023-05-07T11:32:17;11.02;;;8.93;;
75358;SDS011;64046;51.978;5.934;2023-05-07T11:34:54;11.52;;;9.52;;
75358;SDS011;64046;51.978;5.934;2023-05-07T11:37:28;12.98;;;10.10;;
75358;SDS011;64046;51.978;5.934;2023-05-07T11:40:02;10.93;;;8.80;;
75358;SDS011;64046;51.978;5.934;2023-05-07T11:42:40;13.63;;;10.73;;
75358;SDS011;64046;51.978;5.934;2023-05-07T11:45:22;13.00;;;10.63;;
75358;SDS011;64046;51.978;5.934;2023-05-07T11:47:56;14.68;;;9.18;;
75358;SDS011;64046;51.978;5.934;2023-05-07T11:50:36;14.82;;;10.38;;
75358;SDS011;64046;51.978;5.934;2023-05-07T11:53:19;12.13;;;9.55;;
75358;SDS011;64046;51.978;5.934;2023-05-07T11:55:51;12.20;;;9.15;;
75358;SDS011;64046;51.978;5.934;2023-05-07T11:58:31;12.77;;;8.32;;
75358;SDS011;64046;51.978;5.934;2023-05-07T12:01:04;12.57;;;8.90;;
75358;SDS011;64046;51.978;5.934;2023-05-07T12:03:47;11.75;;;8.73;;
75358;SDS011;64046;51.978;5.934;2023-05-07T12:06:21;10.57;;;8.80;;
75358;SDS011;64046;51.978;5.934;2023-05-07T12:08:53;9.85;;;8.73;;
75358;SDS011;64046;51.978;5.934;2023-05-07T12:11:27;11.32;;;8.02;;
75358;SDS011;64046;51.978;5.934;2023-05-07T12:13:59;13.55;;;10.45;;
75358;SDS011;64046;51.978;5.934;2023-05-07T12:16:33;10.38;;;8.02;;
75358;SDS011;64046;51.978;5.934;2023-05-07T12:19:08;9.77;;;7.60;;
75358;SDS011;64046;51.978;5.934;2023-05-07T12:21:38;10.52;;;8.45;;
75358;SDS011;64046;51.978;5.934;2023-05-07T12:24:08;12.38;;;8.15;;
75358;SDS011;64046;51.978;5.934;2023-05-07T12:26:47;10.98;;;8.02;;
75358;SDS011;64046;51.978;5.934;2023-05-07T12:29:23;10.25;;;7.28;;
75358;SDS011;64046;51.978;5.934;2023-05-07T12:31:57;9.82;;;8.13;;
75358;SDS011;64046;51.978;5.934;2023-05-07T12:34:33;10.63;;;7.07;;
75358;SDS011;64046;51.978;5.934;2023-05-07T12:37:11;11.05;;;8.73;;
75358;SDS011;64046;51.978;5.934;2023-05-07T12:40:05;12.00;;;8.88;;
75358;SDS011;64046;51.978;5.934;2023-05-07T12:42:39;10.45;;;8.23;;
75358;SDS011;64046;51.978;5.934;2023-05-07T12:45:16;9.70;;;7.60;;
75358;SDS011;64046;51.978;5.934;2023-05-07T12:47:48;9.60;;;7.22;;
75358;SDS011;64046;51.978;5.934;2023-05-07T12:53:29;11.68;;;7.20;;
75358;SDS011;64046;51.978;5.934;2023-05-07T12:56:00;9.75;;;7.53;;
75358;SDS011;64046;51.978;5.934;2023-05-07T12:58:35;9.75;;;7.53;;
75358;SDS011;64046;51.978;5.934;2023-05-07T13:01:05;8.60;;;7.00;;
75358;SDS011;64046;51.978;5.934;2023-05-07T13:03:41;10.57;;;7.35;;
75358;SDS011;64046;51.978;5.934;2023-05-07T13:06:16;10.32;;;7.35;;
75358;SDS011;64046;51.978;5.934;2023-05-07T13:08:48;12.50;;;7.28;;
75358;SDS011;64046;51.978;5.934;2023-05-07T13:11:21;9.10;;;6.90;;
75358;SDS011;64046;51.978;5.934;2023-05-07T13:13:51;10.98;;;8.18;;
75358;SDS011;64046;51.978;5.934;2023-05-07T13:16:22;9.73;;;7.05;;
75358;SDS011;64046;51.978;5.934;2023-05-07T13:18:57;9.57;;;6.63;;
75358;SDS011;64046;51.978;5.934;2023-05-07T13:21:27;11.00;;;6.85;;
75358;SDS011;64046;51.978;5.934;2023-05-07T13:24:03;9.25;;;7.38;;
75358;SDS011;64046;51.978;5.934;2023-05-07T13:26:34;8.80;;;7.10;;
75358;SDS011;64046;51.978;5.934;2023-05-07T13:29:03;8.23;;;6.50;;
75358;SDS011;64046;51.978;5.934;2023-05-07T13:31:36;9.68;;;6.68;;
75358;SDS011;64046;51.978;5.934;2023-05-07T13:34:08;7.45;;;5.85;;
75358;SDS011;64046;51.978;5.934;2023-05-07T13:36:38;9.68;;;6.68;;
75358;SDS011;64046;51.978;5.934;2023-05-07T13:42:56;9.32;;;6.88;;
75358;SDS011;64046;51.978;5.934;2023-05-07T13:45:29;8.15;;;6.25;;
75358;SDS011;64046;51.978;5.934;2023-05-07T13:48:02;10.55;;;7.05;;
75358;SDS011;64046;51.978;5.934;2023-05-07T13:53:18;10.40;;;6.07;;
75358;SDS011;64046;51.978;5.934;2023-05-07T13:56:06;8.05;;;5.80;;
75358;SDS011;64046;51.978;5.934;2023-05-07T13:58:45;10.07;;;6.88;;
75358;SDS011;64046;51.978;5.934;2023-05-07T14:01:16;8.65;;;6.57;;
75358;SDS011;64046;51.978;5.934;2023-05-07T14:03:48;9.63;;;7.50;;
75358;SDS011;64046;51.978;5.934;2023-05-07T14:06:35;11.43;;;7.32;;
75358;SDS011;64046;51.978;5.934;2023-05-07T14:09:07;11.32;;;6.68;;
75358;SDS011;64046;51.978;5.934;2023-05-07T14:11:39;11.93;;;7.70;;
75358;SDS011;64046;51.978;5.934;2023-05-07T14:14:12;9.38;;;6.55;;
75358;SDS011;64046;51.978;5.934;2023-05-07T14:16:44;9.00;;;6.50;;
75358;SDS011;64046;51.978;5.934;2023-05-07T14:19:14;9.88;;;6.10;;
75358;SDS011;64046;51.978;5.934;2023-05-07T14:21:44;9.23;;;7.63;;
75358;SDS011;64046;51.978;5.934;2023-05-07T14:24:16;8.65;;;7.28;;
75358;SDS011;64046;51.978;5.934;2023-05-07T14:26:46;10.40;;;6.72;;
75358;SDS011;64046;51.978;5.934;2023-05-07T14:29:25;13.30;;;8.30;;
75358;SDS011;64046;51.978;5.934;2023-05-07T14:32:00;9.30;;;7.18;;
75358;SDS011;64046;51.978;5.934;2023-05-07T14:34:31;10.73;;;7.75;;
75358;SDS011;64046;51.978;5.934;2023-05-07T14:37:15;10.18;;;6.50;;
75358;SDS011;64046;51.978;5.934;2023-05-07T14:39:48;7.82;;;6.30;;
75358;SDS011;64046;51.978;5.934;2023-05-07T14:42:22;11.02;;;5.85;;
75358;SDS011;64046;51.978;5.934;2023-05-07T14:44:55;6.82;;;5.07;;
75358;SDS011;64046;51.978;5.934;2023-05-07T14:47:24;7.70;;;5.18;;
75358;SDS011;64046;51.978;5.934;2023-05-07T14:50:01;3.97;;;2.60;;
75358;SDS011;64046;51.978;5.934;2023-05-07T14:52:40;2.95;;;1.95;;
75358;SDS011;64046;51.978;5.934;2023-05-07T14:55:09;2.67;;;1.80;;
75358;SDS011;64046;51.978;5.934;2023-05-07T14:57:40;2.35;;;1.55;;
75358;SDS011;64046;51.978;5.934;2023-05-07T15:03:51;5.68;;;2.70;;
75358;SDS011;64046;51.978;5.934;2023-05-07T15:10:04;5.30;;;3.65;;
75358;SDS011;64046;51.978;5.934;2023-05-07T15:15:41;3.20;;;2.30;;
75358;SDS011;64046;51.978;5.934;2023-05-07T15:18:24;3.70;;;2.10;;
75358;SDS011;64046;51.978;5.934;2023-05-07T15:21:48;4.47;;;2.67;;
75358;SDS011;64046;51.978;5.934;2023-05-07T15:24:42;4.00;;;2.88;;
75358;SDS011;64046;51.978;5.934;2023-05-07T15:27:30;6.65;;;4.20;;
75358;SDS011;64046;51.978;5.934;2023-05-07T15:29:59;7.40;;;3.60;;
75358;SDS011;64046;51.978;5.934;2023-05-07T15:32:35;4.13;;;2.92;;
75358;SDS011;64046;51.978;5.934;2023-05-07T15:35:21;4.72;;;2.40;;
75358;SDS011;64046;51.978;5.934;2023-05-07T15:38:01;5.28;;;2.60;;
75358;SDS011;64046;51.978;5.934;2023-05-07T15:40:32;3.30;;;1.80;;
75358;SDS011;64046;51.978;5.934;2023-05-07T15:43:07;2.38;;;1.42;;
75358;SDS011;64046;51.978;5.934;2023-05-07T15:45:39;4.13;;;1.77;;
75358;SDS011;64046;51.978;5.934;2023-05-07T15:48:11;2.95;;;1.77;;
75358;SDS011;64046;51.978;5.934;2023-05-07T15:50:42;2.70;;;1.80;;
75358;SDS011;64046;51.978;5.934;2023-05-07T15:53:32;3.67;;;1.70;;
75358;SDS011;64046;51.978;5.934;2023-05-07T15:56:05;2.67;;;1.33;;
75358;SDS011;64046;51.978;5.934;2023-05-07T15:58:39;4.32;;;1.52;;
75358;SDS011;64046;51.978;5.934;2023-05-07T16:01:15;1.90;;;1.50;;
75358;SDS011;64046;51.978;5.934;2023-05-07T16:03:54;2.15;;;1.30;;
75358;SDS011;64046;51.978;5.934;2023-05-07T16:06:30;2.03;;;1.50;;
75358;SDS011;64046;51.978;5.934;2023-05-07T16:09:38;2.75;;;1.90;;
75358;SDS011;64046;51.978;5.934;2023-05-07T16:12:18;2.70;;;1.88;;
75358;SDS011;64046;51.978;5.934;2023-05-07T16:14:58;4.43;;;2.17;;
75358;SDS011;64046;51.978;5.934;2023-05-07T16:17:30;4.03;;;2.72;;
75358;SDS011;64046;51.978;5.934;2023-05-07T16:20:07;3.47;;;2.03;;
75358;SDS011;64046;51.978;5.934;2023-05-07T16:22:49;7.53;;;2.78;;
75358;SDS011;64046;51.978;5.934;2023-05-07T16:25:26;6.32;;;2.88;;